sensor_id;sensor_type;location;lat;lon;timestamp;P1;durP1;ratioP1;P2;durP2;ratioP2
55776;SDS011;54079;44.540;18.784;2022-09-02T00:01:52;1.95;;;0.52;;
55776;SDS011;54079;44.540;18.784;2022-09-02T00:04:20;1.80;;;0.43;;
55776;SDS011;54079;44.540;18.784;2022-09-02T00:06:48;2.40;;;0.55;;
55776;SDS011;54079;44.540;18.784;2022-09-02T00:09:17;1.05;;;0.35;;
55776;SDS011;54079;44.540;18.784;2022-09-02T00:11:44;1.70;;;0.43;;
55776;SDS011;54079;44.540;18.784;2022-09-02T00:14:18;1.17;;;0.70;;
55776;SDS011;54079;44.540;18.784;2022-09-02T00:16:47;1.77;;;0.60;;
55776;SDS011;54079;44.540;18.784;2022-09-02T00:19:18;0.38;;;0.30;;
55776;SDS011;54079;44.540;18.784;2022-09-02T00:21:46;0.60;;;0.43;;
55776;SDS011;54079;44.540;18.784;2022-09-02T00:24:12;0.30;;;0.30;;
55776;SDS011;54079;44.540;18.784;2022-09-02T00:26:38;0.45;;;0.20;;
55776;SDS011;54079;44.540;18.784;2022-09-02T00:29:05;0.88;;;0.57;;
55776;SDS011;54079;44.540;18.784;2022-09-02T00:31:31;0.75;;;0.50;;
55776;SDS011;54079;44.540;18.784;2022-09-02T00:33:57;1.45;;;0.68;;
55776;SDS011;54079;44.540;18.784;2022-09-02T00:36:24;0.80;;;0.50;;
55776;SDS011;54079;44.540;18.784;2022-09-02T00:38:50;0.30;;;0.30;;
55776;SDS011;54079;44.540;18.784;2022-09-02T00:41:17;0.93;;;0.60;;
55776;SDS011;54079;44.540;18.784;2022-09-02T00:43:47;0.50;;;0.50;;
55776;SDS011;54079;44.540;18.784;2022-09-02T00:46:16;1.30;;;0.57;;
55776;SDS011;54079;44.540;18.784;2022-09-02T00:48:58;0.45;;;0.45;;
55776;SDS011;54079;44.540;18.784;2022-09-02T00:51:29;1.80;;;0.70;;
55776;SDS011;54079;44.540;18.784;2022-09-02T00:54:01;1.90;;;0.60;;
55776;SDS011;54079;44.540;18.784;2022-09-02T00:56:29;1.08;;;0.70;;
55776;SDS011;54079;44.540;18.784;2022-09-02T00:58:56;0.80;;;0.73;;
55776;SDS011;54079;44.540;18.784;2022-09-02T01:01:24;0.50;;;0.50;;
55776;SDS011;54079;44.540;18.784;2022-09-02T01:03:51;0.75;;;0.70;;
55776;SDS011;54079;44.540;18.784;2022-09-02T01:06:22;3.03;;;0.60;;
55776;SDS011;54079;44.540;18.784;2022-09-02T01:08:52;0.82;;;0.77;;
55776;SDS011;54079;44.540;18.784;2022-09-02T01:11:26;0.55;;;0.52;;
55776;SDS011;54079;44.540;18.784;2022-09-02T01:13:56;1.15;;;0.73;;
55776;SDS011;54079;44.540;18.784;2022-09-02T01:16:37;1.63;;;0.68;;
55776;SDS011;54079;44.540;18.784;2022-09-02T01:19:09;2.30;;;0.55;;
55776;SDS011;54079;44.540;18.784;2022-09-02T01:21:55;0.70;;;0.60;;
55776;SDS011;54079;44.540;18.784;2022-09-02T01:24:23;1.00;;;0.90;;
55776;SDS011;54079;44.540;18.784;2022-09-02T01:26:53;0.80;;;0.80;;
55776;SDS011;54079;44.540;18.784;2022-09-02T01:29:21;1.25;;;0.90;;
55776;SDS011;54079;44.540;18.784;2022-09-02T01:31:48;0.73;;;0.73;;
55776;SDS011;54079;44.540;18.784;2022-09-02T01:34:14;2.75;;;0.63;;
55776;SDS011;54079;44.540;18.784;2022-09-02T01:36:41;0.93;;;0.77;;
55776;SDS011;54079;44.540;18.784;2022-09-02T01:39:09;2.22;;;0.70;;
55776;SDS011;54079;44.540;18.784;2022-09-02T01:41:36;0.95;;;0.50;;
55776;SDS011;54079;44.540;18.784;2022-09-02T01:44:03;1.08;;;0.65;;
55776;SDS011;54079;44.540;18.784;2022-09-02T01:46:30;1.00;;;0.30;;
55776;SDS011;54079;44.540;18.784;2022-09-02T01:48:56;1.98;;;0.95;;
55776;SDS011;54079;44.540;18.784;2022-09-02T01:51:23;1.33;;;0.60;;
55776;SDS011;54079;44.540;18.784;2022-09-02T01:53:49;0.93;;;0.50;;
55776;SDS011;54079;44.540;18.784;2022-09-02T01:56:15;1.65;;;0.70;;
55776;SDS011;54079;44.540;18.784;2022-09-02T01:58:41;1.60;;;0.75;;
55776;SDS011;54079;44.540;18.784;2022-09-02T02:01:07;1.63;;;0.70;;
55776;SDS011;54079;44.540;18.784;2022-09-02T02:03:34;1.35;;;0.93;;
55776;SDS011;54079;44.540;18.784;2022-09-02T02:06:01;0.70;;;0.35;;
55776;SDS011;54079;44.540;18.784;2022-09-02T02:08:31;0.70;;;0.38;;
55776;SDS011;54079;44.540;18.784;2022-09-02T02:10:57;0.52;;;0.52;;
55776;SDS011;54079;44.540;18.784;2022-09-02T02:13:25;1.25;;;0.57;;
55776;SDS011;54079;44.540;18.784;2022-09-02T02:15:51;1.02;;;0.57;;
55776;SDS011;54079;44.540;18.784;2022-09-02T02:18:17;1.77;;;0.57;;
55776;SDS011;54079;44.540;18.784;2022-09-02T02:20:43;0.60;;;0.60;;
55776;SDS011;54079;44.540;18.784;2022-09-02T02:23:09;0.95;;;0.70;;
55776;SDS011;54079;44.540;18.784;2022-09-02T02:25:34;1.10;;;0.75;;
55776;SDS011;54079;44.540;18.784;2022-09-02T02:28:01;0.88;;;0.68;;
55776;SDS011;54079;44.540;18.784;2022-09-02T02:30:28;2.00;;;0.50;;
55776;SDS011;54079;44.540;18.784;2022-09-02T02:32:54;0.98;;;0.75;;
55776;SDS011;54079;44.540;18.784;2022-09-02T02:35:20;0.90;;;0.70;;
55776;SDS011;54079;44.540;18.784;2022-09-02T02:37:47;1.33;;;0.75;;
55776;SDS011;54079;44.540;18.784;2022-09-02T02:40:15;0.45;;;0.45;;
55776;SDS011;54079;44.540;18.784;2022-09-02T02:42:43;4.28;;;0.95;;
55776;SDS011;54079;44.540;18.784;2022-09-02T02:45:10;0.98;;;0.88;;
55776;SDS011;54079;44.540;18.784;2022-09-02T02:47:40;0.52;;;0.40;;
55776;SDS011;54079;44.540;18.784;2022-09-02T02:50:08;0.90;;;0.80;;
55776;SDS011;54079;44.540;18.784;2022-09-02T02:52:37;1.33;;;0.75;;
55776;SDS011;54079;44.540;18.784;2022-09-02T02:55:05;2.33;;;0.88;;
55776;SDS011;54079;44.540;18.784;2022-09-02T02:57:32;0.77;;;0.68;;
55776;SDS011;54079;44.540;18.784;2022-09-02T03:00:10;1.17;;;0.65;;
55776;SDS011;54079;44.540;18.784;2022-09-02T03:02:38;0.80;;;0.80;;
55776;SDS011;54079;44.540;18.784;2022-09-02T03:05:05;0.50;;;0.50;;
55776;SDS011;54079;44.540;18.784;2022-09-02T03:07:32;0.60;;;0.60;;
55776;SDS011;54079;44.540;18.784;2022-09-02T03:09:59;0.57;;;0.52;;
55776;SDS011;54079;44.540;18.784;2022-09-02T03:12:25;0.82;;;0.70;;
55776;SDS011;54079;44.540;18.784;2022-09-02T03:14:51;2.90;;;0.80;;
55776;SDS011;54079;44.540;18.784;2022-09-02T03:17:17;2.72;;;0.75;;
55776;SDS011;54079;44.540;18.784;2022-09-02T03:19:43;1.20;;;1.08;;
55776;SDS011;54079;44.540;18.784;2022-09-02T03:22:09;1.30;;;0.75;;
55776;SDS011;54079;44.540;18.784;2022-09-02T03:24:36;0.77;;;0.70;;
55776;SDS011;54079;44.540;18.784;2022-09-02T03:27:03;1.65;;;1.05;;
55776;SDS011;54079;44.540;18.784;2022-09-02T03:29:29;2.15;;;0.85;;
55776;SDS011;54079;44.540;18.784;2022-09-02T03:31:55;1.00;;;0.90;;
55776;SDS011;54079;44.540;18.784;2022-09-02T03:34:21;1.58;;;1.00;;
55776;SDS011;54079;44.540;18.784;2022-09-02T03:36:47;1.10;;;1.00;;
55776;SDS011;54079;44.540;18.784;2022-09-02T03:39:13;1.20;;;1.10;;
55776;SDS011;54079;44.540;18.784;2022-09-02T03:41:39;1.17;;;1.05;;
55776;SDS011;54079;44.540;18.784;2022-09-02T03:44:06;1.80;;;1.60;;
55776;SDS011;54079;44.540;18.784;2022-09-02T03:46:32;1.30;;;1.20;;
55776;SDS011;54079;44.540;18.784;2022-09-02T03:48:59;1.52;;;1.42;;
55776;SDS011;54079;44.540;18.784;2022-09-02T03:51:25;1.25;;;1.15;;
55776;SDS011;54079;44.540;18.784;2022-09-02T03:53:52;1.40;;;1.30;;
55776;SDS011;54079;44.540;18.784;2022-09-02T03:56:18;1.25;;;1.13;;
55776;SDS011;54079;44.540;18.784;2022-09-02T03:58:46;4.13;;;1.42;;
55776;SDS011;54079;44.540;18.784;2022-09-02T04:01:18;1.13;;;1.08;;
55776;SDS011;54079;44.540;18.784;2022-09-02T04:03:46;2.08;;;1.45;;
55776;SDS011;54079;44.540;18.784;2022-09-02T04:06:14;2.08;;;1.45;;
55776;SDS011;54079;44.540;18.784;2022-09-02T04:08:42;2.35;;;1.67;;
55776;SDS011;54079;44.540;18.784;2022-09-02T04:11:10;1.55;;;1.23;;
55776;SDS011;54079;44.540;18.784;2022-09-02T04:13:39;1.17;;;1.08;;
55776;SDS011;54079;44.540;18.784;2022-09-02T04:16:06;1.55;;;1.45;;
55776;SDS011;54079;44.540;18.784;2022-09-02T04:18:33;2.28;;;1.55;;
55776;SDS011;54079;44.540;18.784;2022-09-02T04:20:59;1.63;;;1.48;;
55776;SDS011;54079;44.540;18.784;2022-09-02T04:23:25;4.07;;;1.48;;
55776;SDS011;54079;44.540;18.784;2022-09-02T04:25:52;1.55;;;1.45;;
55776;SDS011;54079;44.540;18.784;2022-09-02T04:28:19;2.55;;;2.10;;
55776;SDS011;54079;44.540;18.784;2022-09-02T04:30:45;3.10;;;1.83;;
55776;SDS011;54079;44.540;18.784;2022-09-02T04:33:11;2.15;;;2.03;;
55776;SDS011;54079;44.540;18.784;2022-09-02T04:35:41;3.60;;;1.95;;
55776;SDS011;54079;44.540;18.784;2022-09-02T04:38:08;2.65;;;1.75;;
55776;SDS011;54079;44.540;18.784;2022-09-02T04:40:38;3.25;;;2.30;;
55776;SDS011;54079;44.540;18.784;2022-09-02T04:43:05;2.40;;;2.08;;
55776;SDS011;54079;44.540;18.784;2022-09-02T04:45:31;2.28;;;2.08;;
55776;SDS011;54079;44.540;18.784;2022-09-02T04:47:57;3.33;;;2.10;;
55776;SDS011;54079;44.540;18.784;2022-09-02T04:50:23;2.33;;;2.15;;
55776;SDS011;54079;44.540;18.784;2022-09-02T04:52:49;2.90;;;2.42;;
55776;SDS011;54079;44.540;18.784;2022-09-02T04:55:15;2.97;;;2.60;;
55776;SDS011;54079;44.540;18.784;2022-09-02T04:57:41;2.40;;;2.03;;
55776;SDS011;54079;44.540;18.784;2022-09-02T05:00:08;3.67;;;2.63;;
55776;SDS011;54079;44.540;18.784;2022-09-02T05:02:34;4.57;;;2.47;;
55776;SDS011;54079;44.540;18.784;2022-09-02T05:05:00;3.78;;;2.80;;
55776;SDS011;54079;44.540;18.784;2022-09-02T05:07:26;2.70;;;2.50;;
55776;SDS011;54079;44.540;18.784;2022-09-02T05:09:56;3.70;;;3.03;;
55776;SDS011;54079;44.540;18.784;2022-09-02T05:12:22;3.55;;;3.17;;
55776;SDS011;54079;44.540;18.784;2022-09-02T05:14:51;2.90;;;2.60;;
55776;SDS011;54079;44.540;18.784;2022-09-02T05:17:17;3.25;;;2.95;;
55776;SDS011;54079;44.540;18.784;2022-09-02T05:19:43;4.00;;;2.65;;
55776;SDS011;54079;44.540;18.784;2022-09-02T05:22:09;8.98;;;3.00;;
55776;SDS011;54079;44.540;18.784;2022-09-02T05:24:35;2.40;;;2.20;;
55776;SDS011;54079;44.540;18.784;2022-09-02T05:27:01;15.52;;;3.08;;
55776;SDS011;54079;44.540;18.784;2022-09-02T05:29:27;4.53;;;2.83;;
55776;SDS011;54079;44.540;18.784;2022-09-02T05:31:53;13.70;;;5.53;;
55776;SDS011;54079;44.540;18.784;2022-09-02T05:34:19;10.98;;;4.43;;
55776;SDS011;54079;44.540;18.784;2022-09-02T05:36:46;2.33;;;2.13;;
55776;SDS011;54079;44.540;18.784;2022-09-02T05:39:12;8.32;;;3.30;;
55776;SDS011;54079;44.540;18.784;2022-09-02T05:41:38;3.85;;;2.72;;
55776;SDS011;54079;44.540;18.784;2022-09-02T05:44:05;4.32;;;2.15;;
55776;SDS011;54079;44.540;18.784;2022-09-02T05:46:31;2.55;;;2.35;;
55776;SDS011;54079;44.540;18.784;2022-09-02T05:48:57;3.88;;;2.90;;
55776;SDS011;54079;44.540;18.784;2022-09-02T05:54:14;5.13;;;2.25;;
55776;SDS011;54079;44.540;18.784;2022-09-02T05:59:09;2.50;;;2.30;;
55776;SDS011;54079;44.540;18.784;2022-09-02T06:01:35;3.78;;;2.47;;
55776;SDS011;54079;44.540;18.784;2022-09-02T06:04:02;2.55;;;1.77;;
55776;SDS011;54079;44.540;18.784;2022-09-02T06:06:29;5.10;;;3.30;;
55776;SDS011;54079;44.540;18.784;2022-09-02T06:08:56;3.90;;;3.08;;
55776;SDS011;54079;44.540;18.784;2022-09-02T06:11:22;2.42;;;2.22;;
55776;SDS011;54079;44.540;18.784;2022-09-02T06:13:48;2.75;;;2.00;;
55776;SDS011;54079;44.540;18.784;2022-09-02T06:16:16;1.98;;;1.70;;
55776;SDS011;54079;44.540;18.784;2022-09-02T06:18:44;3.47;;;2.60;;
55776;SDS011;54079;44.540;18.784;2022-09-02T06:21:10;2.60;;;2.40;;
55776;SDS011;54079;44.540;18.784;2022-09-02T06:23:36;5.53;;;2.38;;
55776;SDS011;54079;44.540;18.784;2022-09-02T06:26:03;2.38;;;2.17;;
55776;SDS011;54079;44.540;18.784;2022-09-02T06:28:31;2.55;;;1.80;;
55776;SDS011;54079;44.540;18.784;2022-09-02T06:30:57;2.13;;;1.92;;
55776;SDS011;54079;44.540;18.784;2022-09-02T06:33:23;2.17;;;1.50;;
55776;SDS011;54079;44.540;18.784;2022-09-02T06:35:49;2.05;;;1.42;;
55776;SDS011;54079;44.540;18.784;2022-09-02T06:38:16;4.20;;;3.58;;
55776;SDS011;54079;44.540;18.784;2022-09-02T06:41:02;5.30;;;2.00;;
55776;SDS011;54079;44.540;18.784;2022-09-02T06:43:28;3.13;;;1.70;;
55776;SDS011;54079;44.540;18.784;2022-09-02T06:45:54;17.75;;;3.25;;
55776;SDS011;54079;44.540;18.784;2022-09-02T06:48:20;4.93;;;2.00;;
55776;SDS011;54079;44.540;18.784;2022-09-02T06:50:47;3.08;;;1.27;;
55776;SDS011;54079;44.540;18.784;2022-09-02T06:53:13;1.65;;;1.17;;
55776;SDS011;54079;44.540;18.784;2022-09-02T06:55:44;1.10;;;1.00;;
55776;SDS011;54079;44.540;18.784;2022-09-02T06:58:11;1.27;;;0.80;;
55776;SDS011;54079;44.540;18.784;2022-09-02T07:00:38;4.45;;;1.60;;
55776;SDS011;54079;44.540;18.784;2022-09-02T07:03:06;2.33;;;0.90;;
55776;SDS011;54079;44.540;18.784;2022-09-02T07:05:59;1.23;;;1.13;;
55776;SDS011;54079;44.540;18.784;2022-09-02T07:08:37;3.55;;;1.40;;
55776;SDS011;54079;44.540;18.784;2022-09-02T07:11:04;1.38;;;1.27;;
55776;SDS011;54079;44.540;18.784;2022-09-02T07:13:32;1.50;;;1.40;;
55776;SDS011;54079;44.540;18.784;2022-09-02T07:15:59;0.80;;;0.77;;
55776;SDS011;54079;44.540;18.784;2022-09-02T07:18:26;4.32;;;2.22;;
55776;SDS011;54079;44.540;18.784;2022-09-02T07:20:52;3.20;;;1.98;;
55776;SDS011;54079;44.540;18.784;2022-09-02T07:23:19;2.95;;;2.10;;
55776;SDS011;54079;44.540;18.784;2022-09-02T07:25:45;11.00;;;6.40;;
55776;SDS011;54079;44.540;18.784;2022-09-02T07:28:10;23.02;;;14.93;;
55776;SDS011;54079;44.540;18.784;2022-09-02T07:30:39;5.50;;;3.42;;
55776;SDS011;54079;44.540;18.784;2022-09-02T07:33:06;3.75;;;1.90;;
55776;SDS011;54079;44.540;18.784;2022-09-02T07:35:32;2.55;;;2.35;;
55776;SDS011;54079;44.540;18.784;2022-09-02T07:37:58;4.18;;;2.83;;
55776;SDS011;54079;44.540;18.784;2022-09-02T07:40:24;4.25;;;3.20;;
55776;SDS011;54079;44.540;18.784;2022-09-02T07:42:50;2.88;;;1.67;;
55776;SDS011;54079;44.540;18.784;2022-09-02T07:45:16;4.03;;;3.15;;
55776;SDS011;54079;44.540;18.784;2022-09-02T07:47:43;2.75;;;2.55;;
55776;SDS011;54079;44.540;18.784;2022-09-02T07:50:09;16.77;;;8.20;;
55776;SDS011;54079;44.540;18.784;2022-09-02T07:52:37;6.93;;;3.78;;
55776;SDS011;54079;44.540;18.784;2022-09-02T07:55:04;11.93;;;3.53;;
55776;SDS011;54079;44.540;18.784;2022-09-02T07:57:30;4.60;;;3.17;;
55776;SDS011;54079;44.540;18.784;2022-09-02T07:59:56;3.17;;;2.83;;
55776;SDS011;54079;44.540;18.784;2022-09-02T08:02:22;3.40;;;2.95;;
55776;SDS011;54079;44.540;18.784;2022-09-02T08:04:48;13.55;;;8.52;;
55776;SDS011;54079;44.540;18.784;2022-09-02T08:07:15;2.25;;;2.05;;
55776;SDS011;54079;44.540;18.784;2022-09-02T08:09:48;2.17;;;1.90;;
55776;SDS011;54079;44.540;18.784;2022-09-02T08:12:14;1.80;;;1.55;;
55776;SDS011;54079;44.540;18.784;2022-09-02T08:14:41;5.63;;;1.90;;
55776;SDS011;54079;44.540;18.784;2022-09-02T08:17:07;2.28;;;2.00;;
55776;SDS011;54079;44.540;18.784;2022-09-02T08:19:33;1.58;;;1.40;;
55776;SDS011;54079;44.540;18.784;2022-09-02T08:22:02;3.50;;;1.88;;
55776;SDS011;54079;44.540;18.784;2022-09-02T08:24:30;6.47;;;2.83;;
55776;SDS011;54079;44.540;18.784;2022-09-02T08:26:57;11.32;;;5.75;;
55776;SDS011;54079;44.540;18.784;2022-09-02T08:29:24;3.90;;;2.40;;
55776;SDS011;54079;44.540;18.784;2022-09-02T08:31:50;3.33;;;2.30;;
55776;SDS011;54079;44.540;18.784;2022-09-02T08:34:16;4.30;;;2.92;;
55776;SDS011;54079;44.540;18.784;2022-09-02T08:36:42;2.72;;;1.85;;
55776;SDS011;54079;44.540;18.784;2022-09-02T08:39:09;4.97;;;3.50;;
55776;SDS011;54079;44.540;18.784;2022-09-02T08:44:10;3.70;;;2.55;;
55776;SDS011;54079;44.540;18.784;2022-09-02T08:46:42;2.03;;;1.83;;
55776;SDS011;54079;44.540;18.784;2022-09-02T08:49:52;23.73;;;7.35;;
55776;SDS011;54079;44.540;18.784;2022-09-02T08:52:03;7.43;;;3.30;;
55776;SDS011;54079;44.540;18.784;2022-09-02T08:54:32;2.65;;;2.45;;
55776;SDS011;54079;44.540;18.784;2022-09-02T08:57:14;11.32;;;4.70;;
55776;SDS011;54079;44.540;18.784;2022-09-02T08:59:41;2.20;;;2.00;;
55776;SDS011;54079;44.540;18.784;2022-09-02T09:02:24;4.22;;;1.90;;
55776;SDS011;54079;44.540;18.784;2022-09-02T09:05:13;5.75;;;2.50;;
55776;SDS011;54079;44.540;18.784;2022-09-02T09:08:11;4.22;;;2.30;;
55776;SDS011;54079;44.540;18.784;2022-09-02T09:11:01;3.83;;;2.33;;
55776;SDS011;54079;44.540;18.784;2022-09-02T09:13:34;3.92;;;2.42;;
55776;SDS011;54079;44.540;18.784;2022-09-02T09:21:36;4.18;;;3.47;;
55776;SDS011;54079;44.540;18.784;2022-09-02T09:27:12;3.15;;;2.08;;
55776;SDS011;54079;44.540;18.784;2022-09-02T09:29:40;7.38;;;4.10;;
55776;SDS011;54079;44.540;18.784;2022-09-02T09:32:27;5.35;;;2.67;;
55776;SDS011;54079;44.540;18.784;2022-09-02T09:35:03;6.45;;;1.90;;
55776;SDS011;54079;44.540;18.784;2022-09-02T09:40:00;3.72;;;2.70;;
55776;SDS011;54079;44.540;18.784;2022-09-02T09:42:57;6.47;;;4.50;;
55776;SDS011;54079;44.540;18.784;2022-09-02T09:45:47;4.57;;;3.88;;
55776;SDS011;54079;44.540;18.784;2022-09-02T09:53:21;5.03;;;2.80;;
55776;SDS011;54079;44.540;18.784;2022-09-02T09:55:56;3.88;;;2.40;;
55776;SDS011;54079;44.540;18.784;2022-09-02T10:04:01;1.95;;;1.17;;
55776;SDS011;54079;44.540;18.784;2022-09-02T10:09:03;1.60;;;1.50;;
55776;SDS011;54079;44.540;18.784;2022-09-02T10:11:56;2.40;;;1.60;;
55776;SDS011;54079;44.540;18.784;2022-09-02T10:14:31;2.75;;;1.67;;
55776;SDS011;54079;44.540;18.784;2022-09-02T10:19:41;2.58;;;2.22;;
55776;SDS011;54079;44.540;18.784;2022-09-02T10:30:19;3.88;;;2.08;;
55776;SDS011;54079;44.540;18.784;2022-09-02T10:33:10;2.72;;;2.53;;
55776;SDS011;54079;44.540;18.784;2022-09-02T10:36:01;2.42;;;1.80;;
55776;SDS011;54079;44.540;18.784;2022-09-02T10:44:01;6.43;;;3.67;;
55776;SDS011;54079;44.540;18.784;2022-09-02T10:50:01;2.42;;;1.67;;
55776;SDS011;54079;44.540;18.784;2022-09-02T10:55:44;1.70;;;1.52;;
55776;SDS011;54079;44.540;18.784;2022-09-02T10:58:27;2.78;;;2.03;;
55776;SDS011;54079;44.540;18.784;2022-09-02T11:00:59;2.50;;;1.77;;
55776;SDS011;54079;44.540;18.784;2022-09-02T11:03:36;2.97;;;2.72;;
55776;SDS011;54079;44.540;18.784;2022-09-02T11:06:12;2.95;;;1.85;;
55776;SDS011;54079;44.540;18.784;2022-09-02T11:08:54;2.40;;;1.65;;
55776;SDS011;54079;44.540;18.784;2022-09-02T11:17:07;2.38;;;2.13;;
55776;SDS011;54079;44.540;18.784;2022-09-02T11:20:33;3.30;;;1.83;;
55776;SDS011;54079;44.540;18.784;2022-09-02T11:25:41;1.88;;;1.77;;
55776;SDS011;54079;44.540;18.784;2022-09-02T11:33:44;1.90;;;1.80;;
55776;SDS011;54079;44.540;18.784;2022-09-02T11:36:17;3.15;;;2.33;;
55776;SDS011;54079;44.540;18.784;2022-09-02T11:38:50;3.13;;;2.80;;
55776;SDS011;54079;44.540;18.784;2022-09-02T11:51:59;2.08;;;1.67;;
55776;SDS011;54079;44.540;18.784;2022-09-02T11:54:45;5.53;;;2.53;;
55776;SDS011;54079;44.540;18.784;2022-09-02T11:57:21;2.95;;;1.50;;
55776;SDS011;54079;44.540;18.784;2022-09-02T12:02:35;2.67;;;1.60;;
55776;SDS011;54079;44.540;18.784;2022-09-02T12:13:11;1.80;;;1.65;;
55776;SDS011;54079;44.540;18.784;2022-09-02T12:26:22;2.70;;;2.50;;
55776;SDS011;54079;44.540;18.784;2022-09-02T12:31:44;3.13;;;2.45;;
55776;SDS011;54079;44.540;18.784;2022-09-02T12:36:56;2.95;;;2.20;;
55776;SDS011;54079;44.540;18.784;2022-09-02T12:47:25;2.67;;;1.63;;
55776;SDS011;54079;44.540;18.784;2022-09-02T12:50:06;4.00;;;2.35;;
55776;SDS011;54079;44.540;18.784;2022-09-02T12:52:45;2.00;;;1.90;;
55776;SDS011;54079;44.540;18.784;2022-09-02T12:57:42;2.20;;;2.00;;
55776;SDS011;54079;44.540;18.784;2022-09-02T13:00:15;3.05;;;2.10;;
55776;SDS011;54079;44.540;18.784;2022-09-02T13:08:38;2.75;;;2.00;;
55776;SDS011;54079;44.540;18.784;2022-09-02T13:28:49;1.80;;;1.67;;
55776;SDS011;54079;44.540;18.784;2022-09-02T13:31:39;2.40;;;2.20;;
55776;SDS011;54079;44.540;18.784;2022-09-02T13:34:14;2.47;;;2.28;;
55776;SDS011;54079;44.540;18.784;2022-09-02T13:36:41;2.58;;;2.38;;
55776;SDS011;54079;44.540;18.784;2022-09-02T13:39:11;2.65;;;2.40;;
55776;SDS011;54079;44.540;18.784;2022-09-02T13:41:39;4.38;;;3.22;;
55776;SDS011;54079;44.540;18.784;2022-09-02T13:44:06;4.85;;;3.08;;
55776;SDS011;54079;44.540;18.784;2022-09-02T13:47:00;6.72;;;4.32;;
55776;SDS011;54079;44.540;18.784;2022-09-02T13:49:45;5.88;;;4.78;;
55776;SDS011;54079;44.540;18.784;2022-09-02T13:52:17;8.98;;;6.38;;
55776;SDS011;54079;44.540;18.784;2022-09-02T13:57:16;10.88;;;8.43;;
55776;SDS011;54079;44.540;18.784;2022-09-02T13:59:47;9.18;;;8.05;;
55776;SDS011;54079;44.540;18.784;2022-09-02T14:04:46;12.27;;;9.10;;
55776;SDS011;54079;44.540;18.784;2022-09-02T14:07:15;13.38;;;10.27;;
55776;SDS011;54079;44.540;18.784;2022-09-02T14:09:45;14.05;;;11.52;;
55776;SDS011;54079;44.540;18.784;2022-09-02T14:12:12;13.63;;;11.10;;
55776;SDS011;54079;44.540;18.784;2022-09-02T14:14:39;16.63;;;13.48;;
55776;SDS011;54079;44.540;18.784;2022-09-02T14:20:07;17.02;;;12.88;;
55776;SDS011;54079;44.540;18.784;2022-09-02T14:22:54;16.27;;;13.60;;
55776;SDS011;54079;44.540;18.784;2022-09-02T14:25:22;15.90;;;13.15;;
55776;SDS011;54079;44.540;18.784;2022-09-02T14:27:50;15.32;;;12.35;;
55776;SDS011;54079;44.540;18.784;2022-09-02T14:30:31;14.07;;;12.15;;
55776;SDS011;54079;44.540;18.784;2022-09-02T14:33:22;18.17;;;12.63;;
55776;SDS011;54079;44.540;18.784;2022-09-02T14:41:12;14.30;;;10.88;;
55776;SDS011;54079;44.540;18.784;2022-09-02T14:43:49;12.93;;;10.27;;
55776;SDS011;54079;44.540;18.784;2022-09-02T14:51:21;11.90;;;9.88;;
55776;SDS011;54079;44.540;18.784;2022-09-02T14:53:47;14.90;;;11.35;;
55776;SDS011;54079;44.540;18.784;2022-09-02T14:56:13;15.65;;;11.10;;
55776;SDS011;54079;44.540;18.784;2022-09-02T14:58:39;14.43;;;10.77;;
55776;SDS011;54079;44.540;18.784;2022-09-02T15:01:05;15.02;;;10.82;;
55776;SDS011;54079;44.540;18.784;2022-09-02T15:03:35;13.85;;;10.85;;
55776;SDS011;54079;44.540;18.784;2022-09-02T15:06:02;13.05;;;10.23;;
55776;SDS011;54079;44.540;18.784;2022-09-02T15:08:28;15.00;;;10.45;;
55776;SDS011;54079;44.540;18.784;2022-09-02T15:10:57;13.23;;;10.65;;
55776;SDS011;54079;44.540;18.784;2022-09-02T15:13:28;13.45;;;10.98;;
55776;SDS011;54079;44.540;18.784;2022-09-02T15:15:57;11.55;;;10.07;;
55776;SDS011;54079;44.540;18.784;2022-09-02T15:18:24;13.02;;;10.90;;
55776;SDS011;54079;44.540;18.784;2022-09-02T15:20:50;13.50;;;10.45;;
55776;SDS011;54079;44.540;18.784;2022-09-02T15:23:16;12.45;;;10.35;;
55776;SDS011;54079;44.540;18.784;2022-09-02T15:25:42;13.73;;;10.90;;
55776;SDS011;54079;44.540;18.784;2022-09-02T15:28:08;13.80;;;10.05;;
55776;SDS011;54079;44.540;18.784;2022-09-02T15:30:35;15.15;;;11.25;;
55776;SDS011;54079;44.540;18.784;2022-09-02T15:33:04;13.32;;;10.57;;
55776;SDS011;54079;44.540;18.784;2022-09-02T15:35:31;12.25;;;10.02;;
55776;SDS011;54079;44.540;18.784;2022-09-02T15:37:58;12.77;;;10.07;;
55776;SDS011;54079;44.540;18.784;2022-09-02T15:40:25;11.63;;;9.13;;
55776;SDS011;54079;44.540;18.784;2022-09-02T15:42:52;11.75;;;9.48;;
55776;SDS011;54079;44.540;18.784;2022-09-02T15:45:18;13.23;;;9.55;;
55776;SDS011;54079;44.540;18.784;2022-09-02T15:47:44;13.52;;;9.52;;
55776;SDS011;54079;44.540;18.784;2022-09-02T15:50:10;11.15;;;8.55;;
55776;SDS011;54079;44.540;18.784;2022-09-02T15:52:36;15.43;;;10.43;;
55776;SDS011;54079;44.540;18.784;2022-09-02T15:55:03;11.38;;;8.40;;
55776;SDS011;54079;44.540;18.784;2022-09-02T15:57:29;9.63;;;8.13;;
55776;SDS011;54079;44.540;18.784;2022-09-02T15:59:55;11.15;;;7.70;;
55776;SDS011;54079;44.540;18.784;2022-09-02T16:02:22;10.10;;;7.80;;
55776;SDS011;54079;44.540;18.784;2022-09-02T16:04:48;11.02;;;9.02;;
55776;SDS011;54079;44.540;18.784;2022-09-02T16:07:14;8.80;;;7.55;;
55776;SDS011;54079;44.540;18.784;2022-09-02T16:09:40;11.10;;;7.40;;
55776;SDS011;54079;44.540;18.784;2022-09-02T16:12:06;9.23;;;6.32;;
55776;SDS011;54079;44.540;18.784;2022-09-02T16:14:32;11.70;;;5.90;;
55776;SDS011;54079;44.540;18.784;2022-09-02T16:16:58;6.72;;;5.80;;
55776;SDS011;54079;44.540;18.784;2022-09-02T16:19:24;8.45;;;5.10;;
55776;SDS011;54079;44.540;18.784;2022-09-02T16:21:52;7.22;;;4.90;;
55776;SDS011;54079;44.540;18.784;2022-09-02T16:24:18;8.15;;;4.85;;
55776;SDS011;54079;44.540;18.784;2022-09-02T16:26:47;5.63;;;4.93;;
55776;SDS011;54079;44.540;18.784;2022-09-02T16:29:14;7.30;;;5.05;;
55776;SDS011;54079;44.540;18.784;2022-09-02T16:31:44;4.93;;;4.22;;
55776;SDS011;54079;44.540;18.784;2022-09-02T16:34:13;7.03;;;5.10;;
55776;SDS011;54079;44.540;18.784;2022-09-02T16:36:41;8.45;;;5.72;;
55776;SDS011;54079;44.540;18.784;2022-09-02T16:39:09;5.65;;;4.32;;
55776;SDS011;54079;44.540;18.784;2022-09-02T16:41:37;7.57;;;5.10;;
55776;SDS011;54079;44.540;18.784;2022-09-02T16:44:08;5.00;;;4.45;;
55776;SDS011;54079;44.540;18.784;2022-09-02T16:46:41;5.40;;;4.75;;
55776;SDS011;54079;44.540;18.784;2022-09-02T16:49:09;4.97;;;4.35;;
55776;SDS011;54079;44.540;18.784;2022-09-02T16:51:37;5.78;;;4.60;;
55776;SDS011;54079;44.540;18.784;2022-09-02T16:54:05;7.30;;;4.90;;
55776;SDS011;54079;44.540;18.784;2022-09-02T16:56:33;6.47;;;4.93;;
55776;SDS011;54079;44.540;18.784;2022-09-02T16:59:01;6.07;;;4.65;;
55776;SDS011;54079;44.540;18.784;2022-09-02T17:01:29;5.63;;;4.35;;
55776;SDS011;54079;44.540;18.784;2022-09-02T17:03:56;6.05;;;4.05;;
55776;SDS011;54079;44.540;18.784;2022-09-02T17:06:24;5.72;;;4.38;;
55776;SDS011;54079;44.540;18.784;2022-09-02T17:08:50;6.57;;;4.28;;
55776;SDS011;54079;44.540;18.784;2022-09-02T17:11:29;7.50;;;5.18;;
55776;SDS011;54079;44.540;18.784;2022-09-02T17:13:58;6.47;;;4.47;;
55776;SDS011;54079;44.540;18.784;2022-09-02T17:16:36;7.28;;;4.85;;
55776;SDS011;54079;44.540;18.784;2022-09-02T17:19:03;6.55;;;4.95;;
55776;SDS011;54079;44.540;18.784;2022-09-02T17:21:43;5.90;;;4.18;;
55776;SDS011;54079;44.540;18.784;2022-09-02T17:24:11;7.00;;;4.97;;